Etretat — FIDP — position and weather

sailwx.info

Track history (hours):
 
Tides and Currents Weather Stations Pressure Air Temp Water Temp Dewpoint Dewpoint Depression Visibility Wind Speed Wind Dir Waves Ship Positions

Etretat

Last reported at 2016-Apr-29 15:20 UTC. Time now 2016-Apr-29 17:50 UTC.
Position N 49°38' W 003°24'.

Length 187 m; draft 6.1 m.

Type: Ship. MMSI: 228022900.

Date/timePositionNaut miles runAvg speedWind from/ knotsBaromVisibWave heightAir tempDewpointWater temp
2016-Apr-29 15:20N 49°38' W 003°24'1822.7
2016-Apr-29 14:34N 49°51' W 003°06'2121.3
2016-Apr-29 13:34N 50°02' W 002°38'5020.5
2016-Apr-29 11:06N 50°26' W 001°29'1119.9
2016-Apr-29 10:33N 50°32' W 001°14'1414.2
2016-Apr-29 09:34N 50°45' W 001°05'4 3.9
2016-Apr-29 08:33N 50°49' W 001°06'0 0.0
2016-Apr-29 07:33N 50°49' W 001°06'0 0.0
2016-Apr-29 06:33N 50°49' W 001°06'0 0.0
2016-Apr-29 05:33N 50°49' W 001°06'0 0.0
2016-Apr-29 04:33N 50°49' W 001°06'0 0.0
2016-Apr-29 03:34N 50°49' W 001°06'0 0.0
2016-Apr-29 02:33N 50°49' W 001°06'0 0.0
2016-Apr-29 01:34N 50°49' W 001°06'0 0.0
2016-Apr-29 00:33N 50°49' W 001°06'0 0.0
2016-Apr-28 23:34N 50°49' W 001°06'0 0.0
2016-Apr-28 22:33N 50°49' W 001°06'0 0.0
2016-Apr-28 21:33N 50°49' W 001°06'0 0.0
2016-Apr-28 20:33N 50°49' W 001°06'0 0.0
2016-Apr-28 19:34N 50°49' W 001°06'0 0.0
2016-Apr-28 18:34N 50°49' W 001°06'0 0.0
2016-Apr-28 17:34N 50°49' W 001°06'0 0.0
2016-Apr-28 16:33N 50°49' W 001°06'0 0.0
2016-Apr-28 15:33N 50°49' W 001°06'0 0.0
2016-Apr-28 14:33N 50°49' W 001°06'0 0.0
2016-Apr-28 13:33N 50°49' W 001°06'0 0.0
2016-Apr-28 12:33N 50°49' W 001°06'0 0.0
2016-Apr-28 11:33N 50°49' W 001°06'0 0.0
2016-Apr-28 10:33N 50°49' W 001°06'0 0.0
2016-Apr-28 09:33N 50°49' W 001°06'0 0.0
2016-Apr-28 08:33N 50°49' W 001°06'0 0.0
2016-Apr-28 07:33N 50°49' W 001°06'0 0.0
2016-Apr-28 06:33N 50°49' W 001°06'0 0.0
2016-Apr-28 05:33N 50°49' W 001°06'0 0.0
2016-Apr-28 04:33N 50°49' W 001°06'0 0.0
2016-Apr-28 03:33N 50°49' W 001°06'0 0.0
2016-Apr-28 02:33N 50°49' W 001°06'0 0.0
2016-Apr-28 01:33N 50°49' W 001°06'0 0.0
2016-Apr-28 00:33N 50°49' W 001°06'0 0.0
2016-Apr-27 23:33N 50°49' W 001°06'0 0.0
2016-Apr-27 22:33N 50°49' W 001°06'0 0.0
2016-Apr-27 21:33N 50°49' W 001°06'0 0.1
2016-Apr-27 20:33N 50°49' W 001°06'1111.0
2016-Apr-27 19:33N 50°40' W 000°56'2019.6
2016-Apr-27 18:33N 50°22' W 000°41'2120.8
2016-Apr-27 17:33N 50°04' W 000°27'2121.3
2016-Apr-27 16:33N 49°45' W 000°11'1919.4
2016-Apr-27 15:33N 49°29' E 000°06'1 0.6
2016-Apr-27 14:33N 49°29' E 000°07'0 0.0
2016-Apr-27 13:33N 49°29' E 000°07'0 0.0
2016-Apr-27 12:33N 49°29' E 000°07'0 0.0
2016-Apr-27 11:33N 49°29' E 000°07'0 0.0
2016-Apr-27 10:33N 49°29' E 000°07'0 0.0
2016-Apr-27 09:33N 49°29' E 000°07'0 0.0
2016-Apr-27 08:33N 49°29' E 000°07'0 0.0
2016-Apr-27 07:33N 49°29' E 000°07'0 0.0
2016-Apr-27 06:33N 49°29' E 000°07'8 8.2
2016-Apr-27 05:33N 49°35' W 000°01'4 3.6
2016-Apr-27 04:33N 49°39' W 000°03'8 8.1
2016-Apr-27 03:33N 49°45' W 000°11'1515.0
2016-Apr-27 02:33N 49°58' W 000°23'3515.8
2016-Apr-27 00:19N 50°29' W 000°48'1216.0
2016-Apr-26 23:33N 50°40' W 000°57'1010.2
2016-Apr-26 22:33N 50°49' W 001°06'0 0.0
2016-Apr-26 21:34N 50°49' W 001°06'0 0.0
2016-Apr-26 20:33N 50°49' W 001°06'1010.4
2016-Apr-26 19:34N 50°40' W 000°56'2019.6
2016-Apr-26 18:33N 50°23' W 000°40'2020.4
2016-Apr-26 17:33N 50°05' W 000°27'2120.6
2016-Apr-26 16:34N 49°47' W 000°13'2019.8
2016-Apr-26 15:34N 49°30' E 000°03'3 2.6
2016-Apr-26 14:33N 49°29' E 000°07'0 0.0
2016-Apr-26 13:33N 49°29' E 000°07'0 0.0
2016-Apr-26 12:33N 49°29' E 000°07'0 0.0
2016-Apr-26 11:33N 49°29' E 000°07'0 0.0
2016-Apr-26 10:33N 49°29' E 000°07'0 0.0
2016-Apr-26 09:33N 49°29' E 000°07'0 0.0
2016-Apr-26 08:33N 49°29' E 000°07'0 0.0
2016-Apr-26 07:33N 49°29' E 000°07'0 0.0
2016-Apr-26 06:33N 49°29' E 000°07'8 8.5
2016-Apr-26 05:34N 49°35' W 000°02'4 4.2
2016-Apr-26 04:33N 49°40' W 000°03'1313.5
2016-Apr-26 03:34N 49°51' W 000°15'1515.0
2016-Apr-26 02:33N 50°05' W 000°24'2315.4
2016-Apr-26 01:04N 50°25' W 000°42'815.8
2016-Apr-26 00:34N 50°31' W 000°49'1515.2
2016-Apr-25 23:34N 50°44' W 001°03'5 5.4
2016-Apr-25 22:33N 50°49' W 001°06'0 0.0
2016-Apr-25 21:34N 50°49' W 001°06'0 0.1
2016-Apr-25 20:34N 50°49' W 001°06'1111.1
2016-Apr-25 19:33N 50°39' W 000°56'2019.5
2016-Apr-25 18:33N 50°23' W 000°40'1919.3
2016-Apr-25 17:33N 50°05' W 000°28'2019.8
2016-Apr-25 16:33N 49°48' W 000°14'2020.0
2016-Apr-25 15:33N 49°30' E 000°01'4 3.7
2016-Apr-25 14:33N 49°29' E 000°07'0 0.0
2016-Apr-25 13:33N 49°29' E 000°07'0 0.0
2016-Apr-25 12:33N 49°29' E 000°07'0 0.0
2016-Apr-25 11:33N 49°29' E 000°07'0 0.0
2016-Apr-25 10:33N 49°29' E 000°07'0 0.0
2016-Apr-25 09:33N 49°29' E 000°07'0 0.0
2016-Apr-25 08:33N 49°29' E 000°07'0 0.0
2016-Apr-25 07:33N 49°29' E 000°07'0 0.0
2016-Apr-25 06:33N 49°29' E 000°07'8 8.2
2016-Apr-25 05:34N 49°35' W 000°02'4 4.0
2016-Apr-25 04:33N 49°39' W 000°03'1313.5
2016-Apr-25 03:33N 49°50' W 000°15'1514.9
2016-Apr-25 02:33N 50°03' W 000°26'3115.2
2016-Apr-25 00:31N 50°30' W 000°50'1415.1
2016-Apr-24 23:33N 50°43' W 001°01'6 6.5
2016-Apr-24 22:33N 50°49' W 001°06'0 0.0
2016-Apr-24 21:33N 50°49' W 001°06'3 3.0
2016-Apr-24 20:34N 50°46' W 001°05'6 5.6
2016-Apr-24 19:33N 50°42' W 000°58'2221.0
2016-Apr-24 18:30N 50°23' W 000°42'1819.8
2016-Apr-24 17:33N 50°06' W 000°28'2019.8
2016-Apr-24 16:33N 49°49' W 000°14'2020.0
2016-Apr-24 15:33N 49°31' E 000°01'4 4.4
2016-Apr-24 14:33N 49°29' E 000°07'0 0.0
2016-Apr-24 13:33N 49°29' E 000°07'0 0.0
2016-Apr-24 12:33N 49°29' E 000°07'0 0.0
2016-Apr-24 11:33N 49°29' E 000°07'0 0.0
2016-Apr-24 10:33N 49°29' E 000°07'0 0.0
2016-Apr-24 09:33N 49°29' E 000°07'0 0.0
2016-Apr-24 08:33N 49°29' E 000°07'0 0.0
2016-Apr-24 07:33N 49°29' E 000°07'0 0.0
2016-Apr-24 06:33N 49°29' E 000°07'9 8.6
2016-Apr-24 05:34N 49°36' W 000°02'4 3.9
2016-Apr-24 04:33N 49°39' W 000°03'1010.4
2016-Apr-24 03:33N 49°48' W 000°12'1313.1
2016-Apr-24 02:33N 49°59' W 000°22'2913.8
2016-Apr-24 00:28N 50°25' W 000°42'1314.2
2016-Apr-23 23:34N 50°36' W 000°53'1312.9
2016-Apr-23 22:33N 50°46' W 001°05'2 2.3
2016-Apr-23 21:33N 50°49' W 001°06'0 0.0
2016-Apr-23 20:33N 50°49' W 001°06'1110.8
2016-Apr-23 19:34N 50°40' W 000°56'1919.3
2016-Apr-23 18:33N 50°23' W 000°42'1919.4
2016-Apr-23 17:33N 50°05' W 000°28'2019.6
2016-Apr-23 16:33N 49°48' W 000°14'2020.1
2016-Apr-23 15:34N 49°31' E 000°01'4 4.0
2016-Apr-23 14:34N 49°29' E 000°07'0 0.0
2016-Apr-23 13:33N 49°29' E 000°07'0 0.0
2016-Apr-23 12:34N 49°29' E 000°07'0 0.0
2016-Apr-23 11:33N 49°29' E 000°07'0 0.0
2016-Apr-23 10:33N 49°29' E 000°07'0 0.0
2016-Apr-23 09:33N 49°29' E 000°07'0 0.0
2016-Apr-23 08:33N 49°29' E 000°07'0 0.0
2016-Apr-23 07:34N 49°29' E 000°07'0 0.0
2016-Apr-23 06:33N 49°29' E 000°07'9 9.0
2016-Apr-23 05:34N 49°36' W 000°02'5 4.9
2016-Apr-23 04:33N 49°41' W 000°04'1413.8
2016-Apr-23 03:33N 49°51' W 000°18'1313.0
2016-Apr-23 02:33N 50°03' W 000°26'2713.0
2016-Apr-23 00:27N 50°27' W 000°46'1213.5
2016-Apr-22 23:33N 50°38' W 000°55'1212.3
2016-Apr-22 22:33N 50°48' W 001°07'1 1.2
2016-Apr-22 21:34N 50°49' W 001°06'0 0.0
2016-Apr-22 20:33N 50°49' W 001°06'0 0.0
2016-Apr-22 19:34N 50°49' W 001°06'0 0.0
2016-Apr-22 18:34N 50°49' W 001°06'0 0.0
2016-Apr-22 17:33N 50°49' W 001°06'0 0.0
2016-Apr-22 16:33N 50°49' W 001°06'0 0.0
2016-Apr-22 15:33N 50°49' W 001°06'0 0.0
2016-Apr-22 14:34N 50°49' W 001°06'0 0.0
2016-Apr-22 13:33N 50°49' W 001°06'0 0.0
2016-Apr-22 12:33N 50°49' W 001°06'0 0.0
2016-Apr-22 11:34N 50°49' W 001°06'0 0.0
2016-Apr-22 10:34N 50°49' W 001°06'0 0.0
2016-Apr-22 09:34N 50°49' W 001°06'0 0.0
2016-Apr-22 08:34N 50°49' W 001°06'0 0.0
2016-Apr-22 07:34N 50°49' W 001°06'0 0.0
2016-Apr-22 06:34N 50°49' W 001°06'4 3.8
2016-Apr-22 05:34N 50°45' W 001°05'1716.7
2016-Apr-22 04:33N 50°33' W 000°47'1414.5
2016-Apr-22 03:34N 50°20' W 000°37'1414.3
2016-Apr-22 02:33N 50°07' W 000°28'1414.3
2016-Apr-22 01:34N 49°53' W 000°20'1313.1
2016-Apr-22 00:33N 49°42' W 000°10'2 1.7
2016-Apr-21 23:33N 49°43' W 000°08'1 1.1
2016-Apr-21 22:34N 49°43' W 000°06'1 0.5
2016-Apr-21 21:33N 49°43' W 000°05'1313.4
2016-Apr-21 20:33N 49°30' E 000°01'4 3.7
2016-Apr-21 19:33N 49°29' E 000°07'0 0.0
2016-Apr-21 18:33N 49°29' E 000°07'0 0.0
2016-Apr-21 17:33N 49°29' E 000°07'0 0.0
2016-Apr-21 16:33N 49°29' E 000°07'0 0.0
2016-Apr-21 15:33N 49°29' E 000°07'0 0.0
2016-Apr-21 14:33N 49°29' E 000°07'0 0.0
2016-Apr-21 13:33N 49°29' E 000°07'0 0.0
2016-Apr-21 12:33N 49°29' E 000°07'0 0.0
2016-Apr-21 11:33N 49°29' E 000°07'0 0.0
2016-Apr-21 10:33N 49°29' E 000°07'0 0.0
2016-Apr-21 09:33N 49°29' E 000°07'0 0.0
2016-Apr-21 08:33N 49°29' E 000°07'0 0.0
2016-Apr-21 07:33N 49°29' E 000°07'0 0.0
2016-Apr-21 06:33N 49°29' E 000°07'9 8.9
2016-Apr-21 05:33N 49°35' W 000°03'1212.2
2016-Apr-21 04:33N 49°46' W 000°12'1413.5
2016-Apr-21 03:33N 49°58' W 000°21'1413.9
2016-Apr-21 02:33N 50°10' W 000°31'1613.7
2016-Apr-21 01:22N 50°25' W 000°43'1214.5
2016-Apr-21 00:33N 50°35' W 000°51'1313.0
2016-Apr-20 23:34N 50°45' W 001°05'4 4.0
2016-Apr-20 22:33N 50°49' W 001°06'0 0.0
2016-Apr-20 21:34N 50°49' W 001°06'0 0.1
2016-Apr-20 20:34N 50°49' W 001°06'1110.7
2016-Apr-20 19:33N 50°40' W 000°56'2120.4
2016-Apr-20 18:32N 50°22' W 000°39'2020.8
2016-Apr-20 17:33N 50°04' W 000°25'2121.0
2016-Apr-20 16:34N 49°45' W 000°11'1919.0
2016-Apr-20 15:34N 49°29' E 000°06'1 0.7
2016-Apr-20 14:34N 49°29' E 000°07'0 0.0
2016-Apr-20 13:34N 49°29' E 000°07'0 0.0
2016-Apr-20 12:34N 49°29' E 000°07'0 0.0
2016-Apr-20 11:34N 49°29' E 000°07'0 0.0
2016-Apr-20 10:34N 49°29' E 000°07'0 0.0
2016-Apr-20 09:34N 49°29' E 000°07'0 0.0
2016-Apr-20 08:34N 49°29' E 000°07'0 0.0
2016-Apr-20 07:33N 49°29' E 000°07'0 0.0
2016-Apr-20 06:34N 49°29' E 000°07'8 8.1
2016-Apr-20 05:33N 49°36' W 000°01'1514.7
2016-Apr-20 04:33N 49°48' W 000°12'1514.7
2016-Apr-20 03:33N 50°01' W 000°23'1714.2
2016-Apr-20 02:20N 50°16' W 000°36'1312.9
2016-Apr-20 01:20N 50°28' W 000°46'1013.4
2016-Apr-20 00:33N 50°37' W 000°54'1212.4
2016-Apr-19 23:34N 50°47' W 001°06'2 2.0
2016-Apr-19 22:33N 50°49' W 001°06'0 0.0
2016-Apr-19 21:33N 50°49' W 001°06'0 0.1
2016-Apr-19 20:33N 50°49' W 001°06'1010.3
2016-Apr-19 19:33N 50°40' W 000°57'2019.6
2016-Apr-19 18:33N 50°23' W 000°42'2019.9
2016-Apr-19 17:33N 50°06' W 000°27'1919.4
2016-Apr-19 16:33N 49°49' W 000°12'1919.2
2016-Apr-19 15:33N 49°31' E 000°00'  
Track history (hours):
 
Tides and Currents Weather Stations Pressure Air Temp Water Temp Dewpoint Dewpoint Depression Visibility Wind Speed Wind Dir Waves Ship Positions

Etretat

Last reported at 2016-Apr-29 15:20 UTC. Time now 2016-Apr-29 17:50 UTC.
Position N 49°38' W 003°24'.

Length 187 m; draft 6.1 m.

Type: Ship. MMSI: 228022900.

Date/timePositionNaut miles runAvg speedWind from/ knotsBaromVisibWave heightAir tempDewpointWater temp
2016-Apr-29 15:20N 49°38' W 003°24'1822.7
2016-Apr-29 14:34N 49°51' W 003°06'2121.3
2016-Apr-29 13:34N 50°02' W 002°38'5020.5
2016-Apr-29 11:06N 50°26' W 001°29'1119.9
2016-Apr-29 10:33N 50°32' W 001°14'1414.2
2016-Apr-29 09:34N 50°45' W 001°05'4 3.9
2016-Apr-29 08:33N 50°49' W 001°06'0 0.0
2016-Apr-29 07:33N 50°49' W 001°06'0 0.0
2016-Apr-29 06:33N 50°49' W 001°06'0 0.0
2016-Apr-29 05:33N 50°49' W 001°06'0 0.0
2016-Apr-29 04:33N 50°49' W 001°06'0 0.0
2016-Apr-29 03:34N 50°49' W 001°06'0 0.0
2016-Apr-29 02:33N 50°49' W 001°06'0 0.0
2016-Apr-29 01:34N 50°49' W 001°06'0 0.0
2016-Apr-29 00:33N 50°49' W 001°06'0 0.0
2016-Apr-28 23:34N 50°49' W 001°06'0 0.0
2016-Apr-28 22:33N 50°49' W 001°06'0 0.0
2016-Apr-28 21:33N 50°49' W 001°06'0 0.0
2016-Apr-28 20:33N 50°49' W 001°06'0 0.0
2016-Apr-28 19:34N 50°49' W 001°06'0 0.0
2016-Apr-28 18:34N 50°49' W 001°06'0 0.0
2016-Apr-28 17:34N 50°49' W 001°06'0 0.0
2016-Apr-28 16:33N 50°49' W 001°06'0 0.0
2016-Apr-28 15:33N 50°49' W 001°06'0 0.0
2016-Apr-28 14:33N 50°49' W 001°06'0 0.0
2016-Apr-28 13:33N 50°49' W 001°06'0 0.0
2016-Apr-28 12:33N 50°49' W 001°06'0 0.0
2016-Apr-28 11:33N 50°49' W 001°06'0 0.0
2016-Apr-28 10:33N 50°49' W 001°06'0 0.0
2016-Apr-28 09:33N 50°49' W 001°06'0 0.0
2016-Apr-28 08:33N 50°49' W 001°06'0 0.0
2016-Apr-28 07:33N 50°49' W 001°06'0 0.0
2016-Apr-28 06:33N 50°49' W 001°06'0 0.0
2016-Apr-28 05:33N 50°49' W 001°06'0 0.0
2016-Apr-28 04:33N 50°49' W 001°06'0 0.0
2016-Apr-28 03:33N 50°49' W 001°06'0 0.0
2016-Apr-28 02:33N 50°49' W 001°06'0 0.0
2016-Apr-28 01:33N 50°49' W 001°06'0 0.0
2016-Apr-28 00:33N 50°49' W 001°06'0 0.0
2016-Apr-27 23:33N 50°49' W 001°06'0 0.0
2016-Apr-27 22:33N 50°49' W 001°06'0 0.0
2016-Apr-27 21:33N 50°49' W 001°06'0 0.1
2016-Apr-27 20:33N 50°49' W 001°06'1111.0
2016-Apr-27 19:33N 50°40' W 000°56'2019.6
2016-Apr-27 18:33N 50°22' W 000°41'2120.8
2016-Apr-27 17:33N 50°04' W 000°27'2121.3
2016-Apr-27 16:33N 49°45' W 000°11'1919.4
2016-Apr-27 15:33N 49°29' E 000°06'1 0.6
2016-Apr-27 14:33N 49°29' E 000°07'0 0.0
2016-Apr-27 13:33N 49°29' E 000°07'0 0.0
2016-Apr-27 12:33N 49°29' E 000°07'0 0.0
2016-Apr-27 11:33N 49°29' E 000°07'0 0.0
2016-Apr-27 10:33N 49°29' E 000°07'0 0.0
2016-Apr-27 09:33N 49°29' E 000°07'0 0.0
2016-Apr-27 08:33N 49°29' E 000°07'0 0.0
2016-Apr-27 07:33N 49°29' E 000°07'0 0.0
2016-Apr-27 06:33N 49°29' E 000°07'8 8.2
2016-Apr-27 05:33N 49°35' W 000°01'4 3.6
2016-Apr-27 04:33N 49°39' W 000°03'8 8.1
2016-Apr-27 03:33N 49°45' W 000°11'1515.0
2016-Apr-27 02:33N 49°58' W 000°23'3515.8
2016-Apr-27 00:19N 50°29' W 000°48'1216.0
2016-Apr-26 23:33N 50°40' W 000°57'1010.2
2016-Apr-26 22:33N 50°49' W 001°06'0 0.0
2016-Apr-26 21:34N 50°49' W 001°06'0 0.0
2016-Apr-26 20:33N 50°49' W 001°06'1010.4
2016-Apr-26 19:34N 50°40' W 000°56'2019.6
2016-Apr-26 18:33N 50°23' W 000°40'2020.4
2016-Apr-26 17:33N 50°05' W 000°27'2120.6
2016-Apr-26 16:34N 49°47' W 000°13'2019.8
2016-Apr-26 15:34N 49°30' E 000°03'3 2.6
2016-Apr-26 14:33N 49°29' E 000°07'0 0.0
2016-Apr-26 13:33N 49°29' E 000°07'0 0.0
2016-Apr-26 12:33N 49°29' E 000°07'0 0.0
2016-Apr-26 11:33N 49°29' E 000°07'0 0.0
2016-Apr-26 10:33N 49°29' E 000°07'0 0.0
2016-Apr-26 09:33N 49°29' E 000°07'0 0.0
2016-Apr-26 08:33N 49°29' E 000°07'0 0.0
2016-Apr-26 07:33N 49°29' E 000°07'0 0.0
2016-Apr-26 06:33N 49°29' E 000°07'8 8.5
2016-Apr-26 05:34N 49°35' W 000°02'4 4.2
2016-Apr-26 04:33N 49°40' W 000°03'1313.5
2016-Apr-26 03:34N 49°51' W 000°15'1515.0
2016-Apr-26 02:33N 50°05' W 000°24'2315.4
2016-Apr-26 01:04N 50°25' W 000°42'815.8
2016-Apr-26 00:34N 50°31' W 000°49'1515.2
2016-Apr-25 23:34N 50°44' W 001°03'5 5.4
2016-Apr-25 22:33N 50°49' W 001°06'0 0.0
2016-Apr-25 21:34N 50°49' W 001°06'0 0.1
2016-Apr-25 20:34N 50°49' W 001°06'1111.1
2016-Apr-25 19:33N 50°39' W 000°56'2019.5
2016-Apr-25 18:33N 50°23' W 000°40'1919.3
2016-Apr-25 17:33N 50°05' W 000°28'2019.8
2016-Apr-25 16:33N 49°48' W 000°14'2020.0
2016-Apr-25 15:33N 49°30' E 000°01'4 3.7
2016-Apr-25 14:33N 49°29' E 000°07'0 0.0
2016-Apr-25 13:33N 49°29' E 000°07'0 0.0
2016-Apr-25 12:33N 49°29' E 000°07'0 0.0
2016-Apr-25 11:33N 49°29' E 000°07'0 0.0
2016-Apr-25 10:33N 49°29' E 000°07'0 0.0
2016-Apr-25 09:33N 49°29' E 000°07'0 0.0
2016-Apr-25 08:33N 49°29' E 000°07'0 0.0
2016-Apr-25 07:33N 49°29' E 000°07'0 0.0
2016-Apr-25 06:33N 49°29' E 000°07'8 8.2
2016-Apr-25 05:34N 49°35' W 000°02'4 4.0
2016-Apr-25 04:33N 49°39' W 000°03'1313.5
2016-Apr-25 03:33N 49°50' W 000°15'1514.9
2016-Apr-25 02:33N 50°03' W 000°26'3115.2
2016-Apr-25 00:31N 50°30' W 000°50'1415.1
2016-Apr-24 23:33N 50°43' W 001°01'6 6.5
2016-Apr-24 22:33N 50°49' W 001°06'0 0.0
2016-Apr-24 21:33N 50°49' W 001°06'3 3.0
2016-Apr-24 20:34N 50°46' W 001°05'6 5.6
2016-Apr-24 19:33N 50°42' W 000°58'2221.0
2016-Apr-24 18:30N 50°23' W 000°42'1819.8
2016-Apr-24 17:33N 50°06' W 000°28'2019.8
2016-Apr-24 16:33N 49°49' W 000°14'2020.0
2016-Apr-24 15:33N 49°31' E 000°01'4 4.4
2016-Apr-24 14:33N 49°29' E 000°07'0 0.0
2016-Apr-24 13:33N 49°29' E 000°07'0 0.0
2016-Apr-24 12:33N 49°29' E 000°07'0 0.0
2016-Apr-24 11:33N 49°29' E 000°07'0 0.0
2016-Apr-24 10:33N 49°29' E 000°07'0 0.0
2016-Apr-24 09:33N 49°29' E 000°07'0 0.0
2016-Apr-24 08:33N 49°29' E 000°07'0 0.0
2016-Apr-24 07:33N 49°29' E 000°07'0 0.0
2016-Apr-24 06:33N 49°29' E 000°07'9 8.6
2016-Apr-24 05:34N 49°36' W 000°02'4 3.9
2016-Apr-24 04:33N 49°39' W 000°03'1010.4
2016-Apr-24 03:33N 49°48' W 000°12'1313.1
2016-Apr-24 02:33N 49°59' W 000°22'2913.8
2016-Apr-24 00:28N 50°25' W 000°42'1314.2
2016-Apr-23 23:34N 50°36' W 000°53'1312.9
2016-Apr-23 22:33N 50°46' W 001°05'2 2.3
2016-Apr-23 21:33N 50°49' W 001°06'0 0.0
2016-Apr-23 20:33N 50°49' W 001°06'1110.8
2016-Apr-23 19:34N 50°40' W 000°56'1919.3
2016-Apr-23 18:33N 50°23' W 000°42'1919.4
2016-Apr-23 17:33N 50°05' W 000°28'2019.6
2016-Apr-23 16:33N 49°48' W 000°14'2020.1
2016-Apr-23 15:34N 49°31' E 000°01'4 4.0
2016-Apr-23 14:34N 49°29' E 000°07'0 0.0
2016-Apr-23 13:33N 49°29' E 000°07'0 0.0
2016-Apr-23 12:34N 49°29' E 000°07'0 0.0
2016-Apr-23 11:33N 49°29' E 000°07'0 0.0
2016-Apr-23 10:33N 49°29' E 000°07'0 0.0
2016-Apr-23 09:33N 49°29' E 000°07'0 0.0
2016-Apr-23 08:33N 49°29' E 000°07'0 0.0
2016-Apr-23 07:34N 49°29' E 000°07'0 0.0
2016-Apr-23 06:33N 49°29' E 000°07'9 9.0
2016-Apr-23 05:34N 49°36' W 000°02'5 4.9
2016-Apr-23 04:33N 49°41' W 000°04'1413.8
2016-Apr-23 03:33N 49°51' W 000°18'1313.0
2016-Apr-23 02:33N 50°03' W 000°26'2713.0
2016-Apr-23 00:27N 50°27' W 000°46'1213.5
2016-Apr-22 23:33N 50°38' W 000°55'1212.3
2016-Apr-22 22:33N 50°48' W 001°07'1 1.2
2016-Apr-22 21:34N 50°49' W 001°06'0 0.0
2016-Apr-22 20:33N 50°49' W 001°06'0 0.0
2016-Apr-22 19:34N 50°49' W 001°06'0 0.0
2016-Apr-22 18:34N 50°49' W 001°06'0 0.0
2016-Apr-22 17:33N 50°49' W 001°06'0 0.0
2016-Apr-22 16:33N 50°49' W 001°06'0 0.0
2016-Apr-22 15:33N 50°49' W 001°06'0 0.0
2016-Apr-22 14:34N 50°49' W 001°06'0 0.0
2016-Apr-22 13:33N 50°49' W 001°06'0 0.0
2016-Apr-22 12:33N 50°49' W 001°06'0 0.0
2016-Apr-22 11:34N 50°49' W 001°06'0 0.0
2016-Apr-22 10:34N 50°49' W 001°06'0 0.0
2016-Apr-22 09:34N 50°49' W 001°06'0 0.0
2016-Apr-22 08:34N 50°49' W 001°06'0 0.0
2016-Apr-22 07:34N 50°49' W 001°06'0 0.0
2016-Apr-22 06:34N 50°49' W 001°06'4 3.8
2016-Apr-22 05:34N 50°45' W 001°05'1716.7
2016-Apr-22 04:33N 50°33' W 000°47'1414.5
2016-Apr-22 03:34N 50°20' W 000°37'1414.3
2016-Apr-22 02:33N 50°07' W 000°28'1414.3
2016-Apr-22 01:34N 49°53' W 000°20'1313.1
2016-Apr-22 00:33N 49°42' W 000°10'2 1.7
2016-Apr-21 23:33N 49°43' W 000°08'1 1.1
2016-Apr-21 22:34N 49°43' W 000°06'1 0.5
2016-Apr-21 21:33N 49°43' W 000°05'1313.4
2016-Apr-21 20:33N 49°30' E 000°01'4 3.7
2016-Apr-21 19:33N 49°29' E 000°07'0 0.0
2016-Apr-21 18:33N 49°29' E 000°07'0 0.0
2016-Apr-21 17:33N 49°29' E 000°07'0 0.0
2016-Apr-21 16:33N 49°29' E 000°07'0 0.0
2016-Apr-21 15:33N 49°29' E 000°07'0 0.0
2016-Apr-21 14:33N 49°29' E 000°07'0 0.0
2016-Apr-21 13:33N 49°29' E 000°07'0 0.0
2016-Apr-21 12:33N 49°29' E 000°07'0 0.0
2016-Apr-21 11:33N 49°29' E 000°07'0 0.0
2016-Apr-21 10:33N 49°29' E 000°07'0 0.0
2016-Apr-21 09:33N 49°29' E 000°07'0 0.0
2016-Apr-21 08:33N 49°29' E 000°07'0 0.0
2016-Apr-21 07:33N 49°29' E 000°07'0 0.0
2016-Apr-21 06:33N 49°29' E 000°07'9 8.9
2016-Apr-21 05:33N 49°35' W 000°03'1212.2
2016-Apr-21 04:33N 49°46' W 000°12'1413.5
2016-Apr-21 03:33N 49°58' W 000°21'1413.9
2016-Apr-21 02:33N 50°10' W 000°31'1613.7
2016-Apr-21 01:22N 50°25' W 000°43'1214.5
2016-Apr-21 00:33N 50°35' W 000°51'1313.0
2016-Apr-20 23:34N 50°45' W 001°05'4 4.0
2016-Apr-20 22:33N 50°49' W 001°06'0 0.0
2016-Apr-20 21:34N 50°49' W 001°06'0 0.1
2016-Apr-20 20:34N 50°49' W 001°06'1110.7
2016-Apr-20 19:33N 50°40' W 000°56'2120.4
2016-Apr-20 18:32N 50°22' W 000°39'2020.8
2016-Apr-20 17:33N 50°04' W 000°25'2121.0
2016-Apr-20 16:34N 49°45' W 000°11'1919.0
2016-Apr-20 15:34N 49°29' E 000°06'1 0.7
2016-Apr-20 14:34N 49°29' E 000°07'0 0.0
2016-Apr-20 13:34N 49°29' E 000°07'0 0.0
2016-Apr-20 12:34N 49°29' E 000°07'0 0.0
2016-Apr-20 11:34N 49°29' E 000°07'0 0.0
2016-Apr-20 10:34N 49°29' E 000°07'0 0.0
2016-Apr-20 09:34N 49°29' E 000°07'0 0.0
2016-Apr-20 08:34N 49°29' E 000°07'0 0.0
2016-Apr-20 07:33N 49°29' E 000°07'0 0.0
2016-Apr-20 06:34N 49°29' E 000°07'8 8.1
2016-Apr-20 05:33N 49°36' W 000°01'1514.7
2016-Apr-20 04:33N 49°48' W 000°12'1514.7
2016-Apr-20 03:33N 50°01' W 000°23'1714.2
2016-Apr-20 02:20N 50°16' W 000°36'1312.9
2016-Apr-20 01:20N 50°28' W 000°46'1013.4
2016-Apr-20 00:33N 50°37' W 000°54'1212.4
2016-Apr-19 23:34N 50°47' W 001°06'2 2.0
2016-Apr-19 22:33N 50°49' W 001°06'0 0.0
2016-Apr-19 21:33N 50°49' W 001°06'0 0.1
2016-Apr-19 20:33N 50°49' W 001°06'1010.3
2016-Apr-19 19:33N 50°40' W 000°57'2019.6
2016-Apr-19 18:33N 50°23' W 000°42'2019.9
2016-Apr-19 17:33N 50°06' W 000°27'1919.4
2016-Apr-19 16:33N 49°49' W 000°12'1919.2
2016-Apr-19 15:33N 49°31' E 000°00'  

Dump ship's entire track history